createdAt,value
2018-08-03T00:01:50.812Z,53.40
2018-08-03T00:04:20.762Z,53.50
2018-08-03T00:06:50.364Z,53.50
2018-08-03T00:09:20.647Z,53.70
2018-08-03T00:11:50.423Z,54.30
2018-08-03T00:14:20.292Z,54.50
2018-08-03T00:16:50.698Z,54.50
2018-08-03T00:19:21.413Z,54.50
2018-08-03T00:21:51.187Z,54.50
2018-08-03T00:24:21.114Z,54.70
2018-08-03T00:26:50.755Z,54.60
2018-08-03T00:29:20.357Z,54.90
2018-08-03T00:31:50.648Z,55.00
2018-08-03T00:34:20.364Z,55.20
2018-08-03T00:36:50.103Z,55.00
2018-08-03T00:39:20.303Z,54.70
2018-08-03T00:41:49.967Z,54.70
2018-08-03T00:44:19.595Z,55.00
2018-08-03T00:46:49.538Z,55.00
2018-08-03T00:49:19.159Z,55.40
2018-08-03T00:51:49.014Z,56.00
2018-08-03T00:54:19.093Z,56.10
2018-08-03T00:56:48.721Z,56.10
2018-08-03T00:59:18.331Z,56.40
2018-08-03T01:01:48.391Z,56.30
2018-08-03T01:04:18.056Z,56.50
2018-08-03T01:06:47.699Z,56.10
2018-08-03T01:09:17.664Z,56.10
2018-08-03T01:11:47.529Z,55.90
2018-08-03T01:14:17.120Z,55.90
2018-08-03T01:16:47.238Z,55.50
2018-08-03T01:19:16.898Z,55.80
2018-08-03T01:21:46.846Z,55.90
2018-08-03T01:24:16.792Z,56.00
2018-08-03T01:26:46.599Z,56.00
2018-08-03T01:29:18.482Z,56.40
2018-08-03T01:34:17.218Z,57.10
2018-08-03T01:36:47.202Z,56.80
2018-08-03T01:41:46.524Z,56.40
2018-08-03T01:44:16.544Z,56.40
2018-08-03T01:46:46.170Z,56.70
2018-08-03T01:49:15.807Z,56.70
2018-08-03T01:51:46.202Z,57.00
2018-08-03T01:54:15.879Z,57.00
2018-08-03T01:56:45.606Z,56.70
2018-08-03T01:59:15.643Z,56.70
2018-08-03T02:01:45.503Z,56.60
2018-08-03T02:04:15.163Z,56.40
2018-08-03T02:06:45.184Z,56.40
2018-08-03T02:09:14.815Z,56.40
2018-08-03T02:11:44.451Z,56.40
2018-08-03T02:14:14.538Z,56.50
2018-08-03T02:16:44.354Z,56.80
2018-08-03T02:19:14.047Z,56.80
2018-08-03T02:21:44.212Z,56.90
2018-08-03T02:24:14.345Z,57.00
2018-08-03T02:26:44.001Z,57.00
2018-08-03T02:29:14.372Z,57.10
2018-08-03T02:31:44.313Z,57.50
2018-08-03T02:34:13.917Z,57.40
2018-08-03T02:36:43.993Z,57.40
2018-08-03T02:39:14.516Z,57.30
2018-08-03T02:41:44.155Z,57.20
2018-08-03T02:44:14.601Z,57.80
2018-08-03T02:46:44.254Z,57.40
2018-08-03T02:49:13.864Z,58.00
2018-08-03T02:51:43.868Z,58.50
2018-08-03T02:54:13.455Z,57.10
2018-08-03T02:56:43.168Z,57.90
2018-08-03T02:59:12.908Z,57.80
2018-08-03T03:01:42.544Z,58.50
2018-08-03T03:04:12.231Z,57.90
2018-08-03T03:06:42.220Z,58.20
2018-08-03T03:09:13.260Z,58.40
2018-08-03T03:11:42.923Z,58.40
2018-08-03T03:14:13.170Z,58.50
2018-08-03T03:16:42.937Z,58.60
2018-08-03T03:19:12.728Z,58.60
2018-08-03T03:21:42.348Z,58.60
2018-08-03T03:24:19.025Z,58.50
2018-08-03T03:26:49.331Z,58.80
2018-08-03T03:29:19.023Z,59.10
2018-08-03T03:31:48.922Z,59.00
2018-08-03T03:34:19.019Z,58.90
2018-08-03T03:36:48.635Z,59.50
2018-08-03T03:39:18.395Z,59.40
2018-08-03T03:41:48.352Z,59.20
2018-08-03T03:44:18.361Z,58.90
2018-08-03T03:46:47.951Z,58.80
2018-08-03T03:49:17.707Z,58.70
2018-08-03T03:51:47.318Z,58.80
2018-08-03T03:54:17.945Z,59.70
2018-08-03T03:56:48.002Z,59.50
2018-08-03T03:59:17.913Z,58.60
2018-08-03T04:01:47.573Z,59.60
2018-08-03T04:04:17.515Z,59.80
2018-08-03T04:06:47.196Z,59.80
2018-08-03T04:09:17.098Z,59.90
2018-08-03T04:11:46.974Z,59.80
2018-08-03T04:14:17.199Z,59.90
2018-08-03T04:16:47.596Z,59.80
2018-08-03T04:19:17.484Z,59.70
2018-08-03T04:21:47.387Z,59.20
2018-08-03T04:24:17.612Z,61.20
2018-08-03T04:26:47.204Z,59.90
2018-08-03T04:29:17.177Z,60.00
2018-08-03T04:31:47.160Z,59.90
2018-08-03T04:34:17.374Z,59.60
2018-08-03T04:36:47.184Z,59.40
2018-08-03T04:39:17.005Z,59.40
2018-08-03T04:41:47.290Z,59.50
2018-08-03T04:44:17.174Z,59.60
2018-08-03T04:49:17.186Z,59.60
2018-08-03T04:53:11.167Z,59.80
2018-08-03T04:55:46.805Z,60.00
2018-08-03T04:58:16.469Z,59.40
2018-08-03T05:00:47.106Z,58.90
2018-08-03T05:03:24.108Z,58.30
2018-08-03T05:05:58.790Z,58.50
2018-08-03T05:08:28.613Z,58.50
2018-08-03T05:11:02.048Z,59.10
2018-08-03T05:13:33.487Z,58.80
2018-08-03T05:16:03.146Z,59.00
2018-08-03T05:18:34.030Z,59.20
2018-08-03T05:21:09.553Z,59.30
2018-08-03T05:23:41.075Z,59.60
2018-08-03T05:26:11.358Z,56.50
2018-08-03T05:28:42.056Z,52.90
2018-08-03T05:31:12.298Z,50.60
2018-08-03T05:33:42.223Z,47.70
2018-08-03T05:36:12.770Z,45.60
2018-08-03T05:38:42.793Z,44.40
2018-08-03T05:41:12.772Z,42.80
2018-08-03T05:43:42.849Z,42.80
2018-08-03T05:46:14.652Z,42.10
2018-08-03T05:48:45.414Z,41.60
2018-08-03T05:51:16.956Z,41.00
2018-08-03T05:53:48.132Z,40.70
2018-08-03T05:56:25.519Z,40.30
2018-08-03T05:59:07.849Z,40.90
2018-08-03T06:01:45.089Z,40.00
2018-08-03T06:04:26.295Z,39.40
2018-08-03T06:06:56.719Z,38.60
2018-08-03T06:09:28.039Z,37.70
2018-08-03T06:11:58.762Z,38.40
2018-08-03T06:14:28.786Z,37.40
2018-08-03T06:16:59.227Z,37.20
2018-08-03T06:19:29.669Z,37.40
2018-08-03T06:22:04.213Z,37.80
2018-08-03T06:27:04.786Z,39.60
2018-08-03T06:29:35.555Z,41.40
2018-08-03T06:32:10.099Z,43.90
2018-08-03T06:34:39.928Z,46.30
2018-08-03T06:37:10.182Z,47.40
2018-08-03T06:44:39.195Z,47.10
2018-08-03T06:47:09.432Z,48.10
2018-08-03T06:49:50.014Z,48.40
2018-08-03T06:52:27.518Z,49.10
2018-08-03T06:54:57.618Z,49.20
2018-08-03T06:57:27.929Z,50.20
2018-08-03T06:59:59.216Z,50.00
2018-08-03T07:02:29.141Z,50.10
2018-08-03T07:05:00.116Z,49.80
2018-08-03T07:07:30.893Z,50.70
2018-08-03T07:10:02.846Z,51.00
2018-08-03T07:12:33.507Z,51.40
2018-08-03T07:15:04.218Z,51.10
2018-08-03T07:17:39.058Z,51.40
2018-08-03T07:20:09.338Z,52.70
2018-08-03T07:22:39.268Z,52.60
2018-08-03T07:25:09.428Z,53.50
2018-08-03T07:27:40.039Z,53.30
2018-08-03T07:30:10.113Z,52.40
2018-08-03T07:32:39.983Z,52.50
2018-08-03T07:35:10.822Z,52.90
2018-08-03T07:37:40.808Z,52.90
2018-08-03T07:40:13.813Z,53.00
2018-08-03T07:42:49.711Z,53.80
2018-08-03T07:45:21.905Z,54.20
2018-08-03T07:47:57.409Z,53.80
2018-08-03T07:50:28.938Z,53.00
2018-08-03T07:53:00.793Z,52.10
2018-08-03T07:55:42.401Z,52.30
2018-08-03T07:58:14.364Z,52.20
2018-08-03T08:00:45.158Z,51.90
2018-08-03T08:03:15.815Z,52.30
2018-08-03T08:05:46.426Z,53.30
2018-08-03T08:08:16.541Z,52.20
2018-08-03T08:10:48.287Z,52.20
2018-08-03T08:13:19.267Z,53.40
2018-08-03T08:15:49.183Z,52.70
2018-08-03T08:18:22.755Z,51.90
2018-08-03T08:20:57.777Z,51.30
2018-08-03T08:23:29.178Z,51.10
2018-08-03T08:25:59.185Z,51.00
2018-08-03T08:28:29.380Z,51.00
2018-08-03T08:31:01.033Z,49.40
2018-08-03T08:33:34.388Z,48.70
2018-08-03T08:36:06.256Z,49.00
2018-08-03T08:38:37.208Z,49.90
2018-08-03T08:41:07.611Z,50.10
2018-08-03T08:43:38.730Z,49.50
2018-08-03T08:46:12.465Z,48.90
2018-08-03T08:48:46.202Z,49.00
2018-08-03T08:51:16.421Z,49.10
2018-08-03T08:53:47.291Z,49.00
2018-08-03T08:56:19.133Z,49.50
2018-08-03T08:59:53.611Z,48.50
2018-08-03T09:02:25.256Z,47.80
2018-08-03T09:05:04.831Z,47.60
2018-08-03T09:07:39.920Z,47.70
2018-08-03T09:10:12.442Z,48.10
2018-08-03T09:12:43.239Z,48.50
2018-08-03T09:15:13.829Z,48.40
2018-08-03T09:17:45.976Z,48.20
2018-08-03T09:20:16.040Z,48.40
2018-08-03T09:22:47.322Z,48.50
2018-08-03T09:25:18.218Z,48.90
2018-08-03T09:27:49.659Z,48.90
2018-08-03T09:30:21.142Z,48.60
2018-08-03T09:32:53.513Z,48.20
2018-08-03T09:35:23.662Z,48.10
2018-08-03T09:37:54.117Z,48.20
2018-08-03T09:40:26.214Z,48.00
2018-08-03T09:42:57.307Z,47.40
2018-08-03T09:45:27.758Z,47.80
2018-08-03T09:47:57.699Z,48.00
2018-08-03T09:50:28.632Z,47.70
2018-08-03T09:52:58.622Z,47.20
2018-08-03T09:55:34.390Z,46.60
2018-08-03T09:58:05.194Z,47.20
2018-08-03T10:00:40.279Z,47.00
2018-08-03T10:03:10.391Z,47.40
2018-08-03T10:05:40.549Z,47.40
2018-08-03T10:08:11.949Z,47.50
2018-08-03T10:10:43.341Z,47.70
2018-08-03T10:13:14.224Z,47.60
2018-08-03T10:15:44.290Z,47.20
2018-08-03T10:18:15.795Z,46.70
2018-08-03T10:20:47.520Z,46.80
2018-08-03T10:23:18.696Z,46.20
2018-08-03T10:25:48.785Z,45.90
2018-08-03T10:28:19.200Z,45.40
2018-08-03T10:30:49.482Z,45.70
2018-08-03T10:33:20.627Z,45.10
2018-08-03T10:35:51.802Z,44.50
2018-08-03T10:38:22.492Z,45.60
2018-08-03T10:40:53.783Z,45.40
2018-08-03T10:46:02.775Z,45.70
2018-08-03T10:48:34.587Z,45.10
2018-08-03T10:51:08.427Z,45.20
2018-08-03T10:53:46.517Z,45.40
2018-08-03T10:56:20.364Z,45.10
2018-08-03T10:58:51.522Z,44.60
2018-08-03T11:03:52.432Z,44.60
2018-08-03T11:06:23.572Z,43.90
2018-08-03T11:08:53.278Z,43.60
2018-08-03T11:11:23.544Z,43.40
2018-08-03T11:13:56.428Z,43.70
2018-08-03T11:16:26.535Z,43.50
2018-08-03T11:18:57.405Z,43.10
2018-08-03T11:21:27.780Z,43.20
2018-08-03T11:23:58.213Z,43.00
2018-08-03T11:26:29.802Z,43.00
2018-08-03T11:29:01.064Z,43.70
2018-08-03T11:31:31.275Z,43.90
2018-08-03T11:34:02.104Z,43.40
2018-08-03T11:36:32.224Z,43.20
2018-08-03T11:39:02.703Z,43.10
2018-08-03T11:41:34.157Z,43.10
2018-08-03T11:44:07.251Z,43.60
2018-08-03T11:46:37.338Z,43.90
2018-08-03T11:49:07.723Z,43.80
2018-08-03T11:51:41.079Z,43.80
2018-08-03T11:54:13.076Z,44.10
2018-08-03T11:56:44.300Z,44.20
2018-08-03T11:59:15.393Z,43.60
2018-08-03T12:01:45.447Z,42.80
2018-08-03T12:04:15.752Z,43.10
2018-08-03T12:06:46.615Z,43.20
2018-08-03T12:09:18.693Z,43.20
2018-08-03T12:11:50.140Z,42.60
2018-08-03T12:14:21.183Z,42.90
2018-08-03T12:16:51.201Z,42.70
2018-08-03T12:19:22.324Z,43.00
2018-08-03T12:21:52.506Z,42.90
2018-08-03T12:24:24.202Z,42.70
2018-08-03T12:26:55.203Z,41.90
2018-08-03T12:29:25.192Z,41.90
2018-08-03T12:31:55.663Z,42.20
2018-08-03T12:34:26.582Z,42.20
2018-08-03T12:36:57.764Z,42.10
2018-08-03T12:39:28.939Z,41.40
2018-08-03T12:41:59.348Z,41.20
2018-08-03T12:44:29.834Z,40.90
2018-08-03T12:47:00.416Z,41.30
2018-08-03T12:49:31.782Z,41.00
2018-08-03T12:52:06.276Z,41.30
2018-08-03T12:54:37.196Z,41.30
2018-08-03T12:57:07.408Z,41.80
2018-08-03T12:59:39.582Z,41.10
2018-08-03T13:02:11.080Z,41.20
2018-08-03T13:04:40.805Z,41.40
2018-08-03T13:07:13.708Z,41.30
2018-08-03T13:09:44.191Z,41.10
2018-08-03T13:12:16.109Z,41.00
2018-08-03T13:14:46.337Z,40.70
2018-08-03T13:17:16.504Z,40.00
2018-08-03T13:19:47.205Z,39.30
2018-08-03T13:22:22.140Z,39.80
2018-08-03T13:24:52.477Z,40.20
2018-08-03T13:27:22.872Z,39.90
2018-08-03T13:29:52.837Z,40.20
2018-08-03T13:32:25.940Z,39.80
2018-08-03T13:34:58.828Z,39.90
2018-08-03T13:37:28.761Z,40.00
2018-08-03T13:39:58.564Z,39.60
2018-08-03T13:42:29.666Z,38.90
2018-08-03T13:45:00.000Z,39.20
2018-08-03T13:47:29.816Z,38.90
2018-08-03T13:49:59.546Z,38.80
2018-08-03T13:52:29.594Z,38.60
2018-08-03T13:55:00.821Z,38.80
2018-08-03T13:57:33.727Z,38.50
2018-08-03T14:00:03.827Z,38.50
2018-08-03T14:02:34.142Z,38.20
2018-08-03T14:05:05.544Z,37.40
2018-08-03T14:07:43.364Z,37.80
2018-08-03T14:10:13.352Z,37.70
2018-08-03T14:12:47.227Z,37.70
2018-08-03T14:15:18.197Z,37.80
2018-08-03T14:17:49.431Z,37.70
2018-08-03T14:20:21.266Z,37.50
2018-08-03T14:22:52.248Z,37.10
2018-08-03T14:25:23.693Z,36.70
2018-08-03T14:27:54.462Z,37.20
2018-08-03T14:30:26.655Z,38.10
2018-08-03T14:32:58.513Z,38.20
2018-08-03T14:35:29.107Z,37.20
2018-08-03T14:38:00.657Z,37.50
2018-08-03T14:40:31.508Z,37.00
2018-08-03T14:43:11.734Z,36.90
2018-08-03T14:45:42.036Z,36.80
2018-08-03T14:48:16.087Z,36.90
2018-08-03T14:50:46.424Z,36.40
2018-08-03T14:53:17.345Z,36.00
2018-08-03T14:55:47.245Z,36.00
2018-08-03T14:58:21.753Z,35.90
2018-08-03T15:00:53.760Z,35.80
2018-08-03T15:03:27.583Z,35.50
2018-08-03T15:08:31.135Z,36.10
2018-08-03T15:11:01.392Z,36.70
2018-08-03T15:13:31.309Z,36.20
2018-08-03T15:16:01.102Z,36.00
2018-08-03T15:18:31.664Z,35.80
2018-08-03T15:21:01.568Z,35.20
2018-08-03T15:23:31.440Z,35.40
2018-08-03T15:26:02.839Z,35.70
2018-08-03T15:28:33.286Z,35.70
2018-08-03T15:31:03.080Z,35.50
2018-08-03T15:33:35.240Z,35.50
2018-08-03T15:36:05.316Z,35.30
2018-08-03T15:38:35.143Z,34.80
2018-08-03T15:41:07.975Z,34.60
2018-08-03T15:43:38.202Z,34.50
2018-08-03T15:46:08.449Z,34.10
2018-08-03T15:48:39.274Z,34.10
2018-08-03T15:51:10.627Z,34.20
2018-08-03T15:53:42.349Z,34.10
2018-08-03T15:56:14.505Z,34.20
2018-08-03T15:58:58.332Z,33.90
2018-08-03T16:01:39.118Z,34.20
2018-08-03T16:04:09.660Z,33.90
2018-08-03T16:06:39.440Z,33.60
2018-08-03T16:09:19.446Z,32.70
2018-08-03T16:11:49.727Z,32.80
2018-08-03T16:14:19.580Z,33.30
2018-08-03T16:16:50.312Z,33.20
2018-08-03T16:19:23.482Z,33.60
2018-08-03T16:21:53.841Z,33.50
2018-08-03T16:24:23.734Z,33.80
2018-08-03T16:26:53.736Z,33.90
2018-08-03T16:29:24.307Z,33.60
2018-08-03T16:31:54.602Z,33.50
2018-08-03T16:34:26.173Z,33.40
2018-08-03T16:36:56.406Z,33.30
2018-08-03T16:39:26.891Z,33.60
2018-08-03T16:42:00.193Z,33.60
2018-08-03T16:44:36.561Z,34.50
2018-08-03T16:47:07.875Z,34.00
2018-08-03T16:49:39.685Z,33.90
2018-08-03T16:52:09.501Z,33.40
2018-08-03T16:54:40.407Z,33.00
2018-08-03T16:57:11.503Z,33.30
2018-08-03T16:59:41.973Z,33.80
2018-08-03T17:02:11.796Z,34.10
2018-08-03T17:04:43.339Z,34.90
2018-08-03T17:07:14.824Z,35.20
2018-08-03T17:09:45.422Z,35.20
2018-08-03T17:12:15.775Z,35.00
2018-08-03T17:14:45.870Z,35.10
2018-08-03T17:17:17.175Z,35.40
2018-08-03T17:19:49.420Z,35.00
2018-08-03T17:22:26.719Z,35.00
2018-08-03T17:25:06.758Z,34.80
2018-08-03T17:27:37.872Z,34.00
2018-08-03T17:30:08.194Z,34.80
2018-08-03T17:32:38.103Z,34.80
2018-08-03T17:35:08.331Z,35.20
2018-08-03T17:37:38.204Z,35.40
2018-08-03T17:40:08.334Z,35.00
2018-08-03T17:42:38.300Z,35.10
2018-08-03T17:45:10.132Z,35.40
2018-08-03T17:47:40.190Z,35.60
2018-08-03T17:50:10.149Z,35.90
2018-08-03T17:52:41.679Z,35.80
2018-08-03T17:55:11.435Z,35.60
2018-08-03T17:57:44.284Z,35.80
2018-08-03T18:00:14.093Z,35.80
2018-08-03T18:02:43.938Z,36.00
2018-08-03T18:05:15.218Z,36.60
2018-08-03T18:07:45.154Z,37.00
2018-08-03T18:10:15.093Z,37.50
2018-08-03T18:12:45.261Z,38.20
2018-08-03T18:15:16.692Z,38.20
2018-08-03T18:17:46.528Z,38.50
2018-08-03T18:20:17.575Z,38.50
2018-08-03T18:22:49.883Z,39.10
2018-08-03T18:25:20.211Z,38.60
2018-08-03T18:27:50.203Z,38.70
2018-08-03T18:30:20.752Z,39.40
2018-08-03T18:32:50.835Z,39.30
2018-08-03T18:35:20.742Z,38.70
2018-08-03T18:37:50.728Z,38.70
2018-08-03T18:40:22.134Z,38.80
2018-08-03T18:42:53.602Z,38.90
2018-08-03T18:45:26.387Z,38.90
2018-08-03T18:47:57.191Z,39.10
2018-08-03T18:50:27.207Z,39.10
2018-08-03T18:52:57.726Z,39.50
2018-08-03T18:55:29.124Z,39.50
2018-08-03T18:57:59.510Z,39.70
2018-08-03T19:00:29.557Z,39.90
2018-08-03T19:02:59.777Z,40.10
2018-08-03T19:05:31.294Z,40.60
2018-08-03T19:08:02.477Z,40.40
2018-08-03T19:10:32.605Z,40.40
2018-08-03T19:13:04.419Z,40.60
2018-08-03T19:15:34.684Z,41.00
2018-08-03T19:18:05.798Z,41.30
2018-08-03T19:20:38.458Z,41.90
2018-08-03T19:23:10.616Z,42.20
2018-08-03T19:25:40.615Z,42.30
2018-08-03T19:28:11.062Z,42.80
2018-08-03T19:30:43.335Z,43.00
2018-08-03T19:33:14.122Z,43.00
2018-08-03T19:35:45.970Z,43.40
2018-08-03T19:38:16.786Z,42.90
2018-08-03T19:40:46.696Z,43.60
2018-08-03T19:43:18.539Z,43.70
2018-08-03T19:45:49.186Z,43.80
2018-08-03T19:48:19.824Z,43.90
2018-08-03T19:50:51.883Z,44.20
2018-08-03T19:53:21.906Z,44.50
2018-08-03T19:55:53.188Z,44.60
2018-08-03T19:58:26.802Z,45.00
2018-08-03T20:01:00.817Z,45.20
2018-08-03T20:03:34.771Z,45.70
2018-08-03T20:06:07.497Z,45.80
2018-08-03T20:08:37.762Z,46.30
2018-08-03T20:11:08.737Z,46.60
2018-08-03T20:13:40.449Z,45.60
2018-08-03T20:16:11.320Z,46.30
2018-08-03T20:18:41.762Z,47.10
2018-08-03T20:21:14.879Z,47.00
2018-08-03T20:24:50.789Z,47.00
2018-08-03T20:27:21.772Z,46.80
2018-08-03T20:29:51.912Z,46.90
2018-08-03T20:32:25.001Z,47.40
2018-08-03T20:35:03.393Z,47.90
2018-08-03T20:37:34.428Z,48.00
2018-08-03T20:40:06.327Z,47.90
2018-08-03T20:42:38.422Z,48.20
2018-08-03T20:45:09.354Z,48.10
2018-08-03T20:47:39.643Z,48.30
2018-08-03T20:50:11.778Z,48.60
2018-08-03T20:52:42.152Z,48.90
2018-08-03T20:55:12.036Z,48.60
2018-08-03T20:57:41.958Z,49.00
2018-08-03T21:00:13.916Z,49.00
2018-08-03T21:02:46.472Z,49.40
2018-08-03T21:05:17.762Z,49.20
2018-08-03T21:07:48.909Z,49.50
2018-08-03T21:10:19.196Z,49.20
2018-08-03T21:12:50.208Z,49.10
2018-08-03T21:15:28.359Z,49.10
2018-08-03T21:18:00.425Z,49.10
2018-08-03T21:20:30.793Z,49.40
2018-08-03T21:23:02.104Z,49.70
2018-08-03T21:25:38.469Z,49.60
2018-08-03T21:28:10.211Z,49.60
2018-08-03T21:30:49.549Z,49.70
2018-08-03T21:33:21.497Z,49.80
2018-08-03T21:35:58.610Z,50.00
2018-08-03T21:38:28.843Z,49.90
2018-08-03T21:41:00.953Z,49.60
2018-08-03T21:43:34.131Z,50.10
2018-08-03T21:46:05.324Z,50.30
2018-08-03T21:48:36.712Z,50.50
2018-08-03T21:51:06.583Z,50.40
2018-08-03T21:53:36.772Z,50.30
2018-08-03T21:56:14.452Z,50.10
2018-08-03T21:58:44.250Z,50.10
2018-08-03T22:01:15.946Z,50.40
2018-08-03T22:03:47.169Z,50.20
2018-08-03T22:06:18.026Z,50.20
2018-08-03T22:08:49.194Z,50.30
2018-08-03T22:11:18.937Z,50.40
2018-08-03T22:13:49.976Z,50.30
2018-08-03T22:16:20.097Z,50.50
2018-08-03T22:18:50.419Z,50.20
2018-08-03T22:21:21.079Z,50.30
2018-08-03T22:23:56.255Z,50.70
2018-08-03T22:26:26.244Z,50.80
2018-08-03T22:28:56.632Z,51.60
2018-08-03T22:31:27.274Z,51.60
2018-08-03T22:33:57.190Z,51.60
2018-08-03T22:36:29.013Z,51.50
2018-08-03T22:39:00.795Z,51.60
2018-08-03T22:41:32.607Z,51.90
2018-08-03T22:44:06.401Z,52.00
2018-08-03T22:46:40.085Z,51.80
2018-08-03T22:49:10.049Z,52.20
2018-08-03T22:51:40.578Z,52.20
2018-08-03T22:54:11.699Z,52.60
2018-08-03T22:56:41.555Z,52.50
2018-08-03T22:59:11.457Z,52.90
2018-08-03T23:01:42.208Z,52.60
2018-08-03T23:04:11.960Z,52.70
2018-08-03T23:06:44.906Z,52.00
2018-08-03T23:09:14.597Z,52.20
2018-08-03T23:11:44.787Z,52.70
2018-08-03T23:14:15.536Z,52.90
2018-08-03T23:16:46.204Z,53.10
2018-08-03T23:19:15.982Z,52.70
2018-08-03T23:21:47.131Z,52.60
2018-08-03T23:24:51.325Z,53.00
2018-08-03T23:27:23.200Z,53.30
2018-08-03T23:29:53.387Z,53.30
2018-08-03T23:37:30.336Z,53.90
2018-08-03T23:40:03.110Z,53.30
2018-08-03T23:42:33.430Z,53.20
2018-08-03T23:45:03.727Z,53.60
2018-08-03T23:50:03.280Z,54.50
2018-08-03T23:52:33.624Z,55.30
2018-08-03T23:55:03.532Z,54.90
2018-08-03T23:57:33.548Z,55.30
